aviador You're here:

CYRQ Decoded Metar

TROIS RIVIERE in CANADA
Report Time2017-11-21 04:00:00
UTC Time2017-11-21 04:13:44
Flight Rules vfr VFR
WindVRB at 02 kt
Visibility9999 m
Phenomena:N/A
Clouds:N/A
Expected CloudBase > 1,200 ft AGL from Temp-Dew spread
CeilingNone
Temp-11°C (ISA -26)
Dew Point-14°C (79% RH)
AAT-15.0°C
QNH1016 hPa
Density Alt-3,084 ft
Elevation198 ft
Report Wrong Elevation
Raw Report
METAR CYRQ 210400Z AUTO VRB02KT 9SM CLR M11/M14 A3000 RMK SLP164=

Extra information for CYRQ:More info

Metar Taf Metar & Taf Last 4 Metars F.Rules Stats Wind Profile Meteogram Temp Stats Airport Information Weather charts Add Link Nearby VenuesMetar ALERT Operation Metar Decoded Social comments